Ricardo, Texas
Current Conditions -  °F | °C
As of 9:56 AM on Monday 26 Jan 2015 (Local Time) from KNQI Reporting Station
Broken Clouds Broken Clouds  
Wind Chill: 63°   Ceiling: 25000
Heat Index: 63°   Visibility: 10mi
Dew Point: 44°   Wind: 3mph
Humidity: 50%   Direction: 320°NW
Pressure: 30.3"   Gusts: NA
Location:  27.4762°N, 97.7965°W
Report Text: KNQI 261556Z 32003KT 10SM BKN250 17/07 A3030 RMK AO2 SLP257 T01720067 $
Loading
Personal Weather Stations






























Interactive Weather Map New forecast layout! Learn more

10-Day Weather Forecast

Advertisements
Track Severe Weather on mobile